createdAt,value
2022-09-28T00:01:19.350Z,98121.57
2022-09-28T00:06:27.415Z,98121.73
2022-09-28T00:11:31.347Z,98116.41
2022-09-28T00:16:38.602Z,98111.52
2022-09-28T00:21:43.187Z,98106.80
2022-09-28T00:26:52.481Z,98099.87
2022-09-28T00:32:05.371Z,98091.42
2022-09-28T00:37:10.463Z,98090.48
2022-09-28T00:42:20.900Z,98086.30
2022-09-28T00:47:55.135Z,98078.98
2022-09-28T00:53:05.209Z,98073.71
2022-09-28T00:58:16.501Z,98074.46
2022-09-28T01:03:20.347Z,98078.20
2022-09-28T01:08:27.916Z,98071.27
2022-09-28T01:13:32.963Z,98061.83
2022-09-28T01:18:43.978Z,98057.91
2022-09-28T01:23:55.996Z,98052.02
2022-09-28T01:29:16.859Z,98048.52
2022-09-28T01:34:45.009Z,98044.54
2022-09-28T01:39:52.724Z,98045.02
2022-09-28T01:45:04.126Z,98044.22
2022-09-28T01:50:14.191Z,98040.13
2022-09-28T01:55:28.666Z,98035.48
2022-09-28T02:00:35.399Z,98036.03
2022-09-28T02:05:43.376Z,98035.84
2022-09-28T02:11:11.570Z,98035.24
2022-09-28T02:16:22.540Z,98042.20
2022-09-28T02:21:34.270Z,98043.79
2022-09-28T02:26:42.187Z,98046.30
2022-09-28T02:31:45.477Z,98049.83
2022-09-28T02:36:49.118Z,98048.63
2022-09-28T02:42:04.407Z,98048.13
2022-09-28T02:47:57.501Z,98047.42
2022-09-28T02:53:37.559Z,98046.80
2022-09-28T02:58:58.179Z,98047.04
2022-09-28T03:04:12.650Z,98047.54
2022-09-28T03:09:22.002Z,98050.47
2022-09-28T03:14:25.314Z,98045.08
2022-09-28T03:19:32.662Z,98044.33
2022-09-28T03:24:36.026Z,98046.52
2022-09-28T03:29:39.645Z,98046.93
2022-09-28T03:34:42.956Z,98051.15
2022-09-28T03:39:46.165Z,98045.50
2022-09-28T03:44:49.373Z,98044.69
2022-09-28T03:49:52.685Z,98048.30
2022-09-28T03:54:55.993Z,98040.48
2022-09-28T03:59:59.210Z,98040.03
2022-09-28T04:05:03.027Z,98033.05
2022-09-28T04:10:06.950Z,98032.62
2022-09-28T04:15:10.879Z,98033.81
2022-09-28T04:20:14.904Z,98031.83
2022-09-28T04:25:18.010Z,98033.02
2022-09-28T04:30:22.243Z,98031.17
2022-09-28T04:35:25.456Z,98025.45
2022-09-28T04:40:28.919Z,98024.48
2022-09-28T04:45:32.354Z,98021.47
2022-09-28T04:50:35.690Z,98019.56
2022-09-28T04:55:39.307Z,98017.81
2022-09-28T05:00:42.761Z,98015.71
2022-09-28T05:05:46.656Z,98011.01
2022-09-28T05:11:01.527Z,98004.48
2022-09-28T05:16:05.698Z,98005.61
2022-09-28T05:21:13.782Z,98009.27
2022-09-28T05:26:17.409Z,98004.12
2022-09-28T05:31:20.786Z,97995.98
2022-09-28T05:36:27.097Z,97993.70
2022-09-28T05:41:30.301Z,97997.24
2022-09-28T05:46:33.510Z,98003.31
2022-09-28T05:51:36.716Z,98005.31
2022-09-28T05:56:39.926Z,98001.20
2022-09-28T06:01:43.281Z,98000.68
2022-09-28T06:06:46.551Z,98001.59
2022-09-28T06:11:50.683Z,98002.23
2022-09-28T06:16:54.124Z,98000.05
2022-09-28T06:21:59.259Z,97994.30
2022-09-28T06:27:02.865Z,97992.45
2022-09-28T06:32:07.607Z,97992.70
2022-09-28T06:37:10.918Z,97991.54
2022-09-28T06:42:15.969Z,97992.34
2022-09-28T06:47:19.281Z,97991.67
2022-09-28T06:52:22.489Z,97992.54
2022-09-28T06:57:25.901Z,97986.31
2022-09-28T07:02:29.383Z,97985.56
2022-09-28T07:07:33.345Z,97982.79
2022-09-28T07:12:36.857Z,97981.83
2022-09-28T07:17:54.152Z,97985.75
2022-09-28T07:23:16.081Z,97988.09
2022-09-28T07:28:22.015Z,97985.64
2022-09-28T07:33:30.242Z,97988.09
2022-09-28T07:38:33.960Z,97991.50
2022-09-28T07:43:39.889Z,98001.98
2022-09-28T07:48:45.993Z,98006.23
2022-09-28T07:53:49.526Z,98004.27
2022-09-28T07:58:52.939Z,98007.82
2022-09-28T08:03:56.558Z,98007.69
2022-09-28T08:09:02.018Z,98013.11
2022-09-28T08:14:05.329Z,98016.08
2022-09-28T08:19:08.745Z,98021.40
2022-09-28T08:24:14.343Z,98017.83
2022-09-28T08:29:17.820Z,98012.79
2022-09-28T08:34:21.236Z,98015.77
2022-09-28T08:39:24.546Z,98012.16
2022-09-28T08:44:39.579Z,98011.85
2022-09-28T08:49:47.620Z,98011.81
2022-09-28T08:55:02.330Z,98014.23
2022-09-28T09:00:10.950Z,98016.71
2022-09-28T09:05:24.315Z,98021.38
2022-09-28T09:10:51.075Z,98017.80
2022-09-28T09:16:15.749Z,98022.67
2022-09-28T09:21:37.731Z,98033.17
2022-09-28T09:26:41.964Z,98043.61
2022-09-28T09:32:20.811Z,98049.11
2022-09-28T09:37:34.875Z,98057.73
2022-09-28T09:42:40.849Z,98064.55
2022-09-28T09:47:58.494Z,98059.46
2022-09-28T09:53:22.077Z,98063.70
2022-09-28T09:58:49.043Z,98070.06
2022-09-28T10:03:53.092Z,98070.48
2022-09-28T10:09:04.986Z,98073.43
2022-09-28T10:14:17.516Z,98080.05
2022-09-28T10:19:31.370Z,98076.88
2022-09-28T10:24:45.532Z,98075.16
2022-09-28T10:30:00.415Z,98079.73
2022-09-28T10:35:19.097Z,98081.35
2022-09-28T10:40:45.017Z,98086.06
2022-09-28T10:45:50.323Z,98088.81
2022-09-28T10:51:09.057Z,98090.49
2022-09-28T10:56:23.104Z,98091.83
2022-09-28T11:01:31.437Z,98091.13
2022-09-28T11:06:40.300Z,98094.35
2022-09-28T11:11:44.519Z,98099.36
2022-09-28T11:16:47.583Z,98102.02
2022-09-28T11:21:51.346Z,98112.06
2022-09-28T11:27:00.433Z,98115.67
2022-09-28T11:32:06.877Z,98116.65
2022-09-28T11:37:16.227Z,98116.77
2022-09-28T11:42:54.913Z,98114.30
2022-09-28T11:48:03.239Z,98112.77
2022-09-28T11:53:27.600Z,98113.52
2022-09-28T11:58:35.623Z,98104.92
2022-09-28T12:03:48.953Z,98100.55
2022-09-28T12:09:01.140Z,98108.55
2022-09-28T12:14:10.746Z,98109.26
2022-09-28T12:19:33.719Z,98112.71
2022-09-28T12:24:42.762Z,98117.08
2022-09-28T12:29:49.045Z,98118.66
2022-09-28T12:34:52.456Z,98117.89
2022-09-28T12:40:21.203Z,98125.70
2022-09-28T12:46:13.733Z,98127.44
2022-09-28T12:51:23.283Z,98129.20
2022-09-28T12:56:29.261Z,98130.52
2022-09-28T13:01:47.444Z,98125.43
2022-09-28T13:06:59.227Z,98127.29
2022-09-28T13:12:25.987Z,98128.02
2022-09-28T13:17:56.534Z,98135.45
2022-09-28T13:23:21.148Z,98133.08
2022-09-28T13:28:27.496Z,98134.56
2022-09-28T13:33:51.530Z,98138.99
2022-09-28T13:38:57.091Z,98142.33
2022-09-28T13:44:38.405Z,98145.40
2022-09-28T13:50:04.125Z,98146.78
2022-09-28T13:55:32.996Z,98149.48
2022-09-28T14:01:02.359Z,98147.13
2022-09-28T14:06:23.704Z,98150.52
2022-09-28T14:11:34.578Z,98150.06
2022-09-28T14:16:39.504Z,98151.40
2022-09-28T14:22:17.758Z,98149.16
2022-09-28T14:27:45.951Z,98158.84
2022-09-28T14:33:00.087Z,98163.45
2022-09-28T14:38:31.486Z,98174.61
2022-09-28T14:43:35.002Z,98184.86
2022-09-28T14:48:49.189Z,98181.77
2022-09-28T14:54:01.282Z,98181.05
2022-09-28T14:59:07.476Z,98183.94
2022-09-28T15:04:13.427Z,98196.80
2022-09-28T15:09:30.569Z,98212.43
2022-09-28T15:14:42.891Z,98228.42
2022-09-28T15:20:09.757Z,98241.45
2022-09-28T15:25:16.854Z,98240.23
2022-09-28T15:30:33.475Z,98239.64
2022-09-28T15:35:38.967Z,98235.80
2022-09-28T15:40:42.587Z,98229.60
2022-09-28T15:46:03.130Z,98228.11
2022-09-28T15:51:13.045Z,98225.71
2022-09-28T15:56:16.963Z,98224.66
2022-09-28T16:01:36.835Z,98222.61
2022-09-28T16:06:41.918Z,98213.19
2022-09-28T16:11:45.223Z,98207.95
2022-09-28T16:16:52.834Z,98210.86
2022-09-28T16:21:59.220Z,98209.80
2022-09-28T16:27:07.037Z,98208.59
2022-09-28T16:32:25.707Z,98203.83
2022-09-28T16:37:33.134Z,98203.91
2022-09-28T16:42:38.050Z,98205.73
2022-09-28T16:47:41.678Z,98199.71
2022-09-28T16:53:03.573Z,98198.46
2022-09-28T16:58:07.248Z,98200.38
2022-09-28T17:03:14.919Z,98198.46
2022-09-28T17:08:22.412Z,98199.27
2022-09-28T17:13:34.894Z,98196.80
2022-09-28T17:18:39.954Z,98190.20
2022-09-28T17:23:44.587Z,98193.26
2022-09-28T17:28:47.898Z,98193.19
2022-09-28T17:33:52.337Z,98198.30
2022-09-28T17:38:56.888Z,98197.85
2022-09-28T17:44:03.360Z,98186.79
2022-09-28T17:49:10.049Z,98179.08
2022-09-28T17:54:13.973Z,98179.52
2022-09-28T17:59:19.263Z,98180.36
2022-09-28T18:04:50.204Z,98184.27
2022-09-28T18:09:46.331Z,98182.23
2022-09-28T18:14:49.852Z,98189.05
2022-09-28T18:19:53.096Z,98193.61
2022-09-28T18:24:56.674Z,98186.98
2022-09-28T18:30:00.598Z,98188.51
2022-09-28T18:35:08.987Z,98188.15
2022-09-28T18:40:15.619Z,98184.84
2022-09-28T18:45:19.337Z,98188.77
2022-09-28T18:50:22.648Z,98184.45
2022-09-28T18:55:26.884Z,98187.94
2022-09-28T19:00:30.396Z,98184.38
2022-09-28T19:05:35.402Z,98181.78
2022-09-28T19:10:38.757Z,98185.98
2022-09-28T19:15:42.126Z,98183.77
2022-09-28T19:20:45.821Z,98181.02
2022-09-28T19:25:49.307Z,98173.69
2022-09-28T19:30:57.563Z,98181.70
2022-09-28T19:36:03.754Z,98183.34
2022-09-28T19:41:39.558Z,98193.52
2022-09-28T19:46:45.796Z,98203.82
2022-09-28T19:52:14.968Z,98203.88
2022-09-28T19:57:19.932Z,98209.45
2022-09-28T20:02:23.390Z,98210.95
2022-09-28T20:07:26.652Z,98213.77
2022-09-28T20:12:30.168Z,98217.44
2022-09-28T20:17:33.589Z,98224.96
2022-09-28T20:22:37.404Z,98228.42
2022-09-28T20:27:40.716Z,98225.91
2022-09-28T20:32:48.729Z,98234.45
2022-09-28T20:37:53.173Z,98235.36
2022-09-28T20:43:00.594Z,98239.73
2022-09-28T20:48:06.537Z,98243.48
2022-09-28T20:53:09.966Z,98242.98
2022-09-28T20:58:13.281Z,98241.27
2022-09-28T21:03:16.893Z,98234.05
2022-09-28T21:08:24.165Z,98228.96
2022-09-28T21:13:27.510Z,98230.61
2022-09-28T21:18:31.025Z,98229.39
2022-09-28T21:23:36.084Z,98233.41
2022-09-28T21:28:40.208Z,98237.48
2022-09-28T21:33:43.518Z,98235.40
2022-09-28T21:38:47.033Z,98238.74
2022-09-28T21:43:50.350Z,98236.48
2022-09-28T21:48:54.173Z,98231.65
2022-09-28T21:53:57.784Z,98222.30
2022-09-28T21:59:01.608Z,98218.90
2022-09-28T22:04:04.921Z,98222.10
2022-09-28T22:09:08.336Z,98224.04
2022-09-28T22:14:11.769Z,98227.21
2022-09-28T22:19:15.774Z,98225.96
2022-09-28T22:24:19.200Z,98223.80
2022-09-28T22:29:22.701Z,98226.63
2022-09-28T22:34:28.265Z,98226.91
2022-09-28T22:39:36.796Z,98230.77
2022-09-28T22:44:41.131Z,98231.56
2022-09-28T22:49:44.442Z,98229.37
2022-09-28T22:54:50.110Z,98231.16
2022-09-28T22:59:53.625Z,98230.30
2022-09-28T23:04:56.939Z,98232.75
2022-09-28T23:10:00.965Z,98224.86
2022-09-28T23:15:05.403Z,98223.48
2022-09-28T23:20:09.196Z,98224.77
2022-09-28T23:25:12.638Z,98223.46
2022-09-28T23:30:17.714Z,98226.65
2022-09-28T23:35:20.999Z,98228.78
2022-09-28T23:40:24.350Z,98233.92
2022-09-28T23:45:27.928Z,98231.48
2022-09-28T23:50:31.238Z,98232.23
2022-09-28T23:55:34.651Z,98235.13
